Agnew, Nebraska
Current Conditions -  °F | °C
As of 6:54 PM on Tuesday 25 Nov 2014 (Local Time) from KLNK Reporting Station
Overcast Overcast  
Wind Chill: 38°   Ceiling: 6000
Heat Index: 43°   Visibility: 10mi
Dew Point: 25°   Wind: 9mph
Humidity: 49%   Direction: 210°SSW
Pressure: 29.93"   Gusts: NA
Location:  40.9964°N, 96.8004°W
Report Text: KLNK 260054Z 21008KT 10SM BKN060 OVC075 06/M04 A2993 RMK AO2 SLP148 T00611039
Loading
Personal Weather Stations






























Interactive Weather Map New forecast layout! Learn more

10-Day Weather Forecast

Advertisements
Track Severe Weather on mobile